sensor_id;sensor_type;location;lat;lon;timestamp;temperature;humidity
26342;DHT22;14054;50.108;8.640;2023-04-03T00:00:46;5.20;99.90
26342;DHT22;14054;50.108;8.640;2023-04-03T00:03:12;5.30;99.90
26342;DHT22;14054;50.108;8.640;2023-04-03T00:05:37;5.30;99.90
26342;DHT22;14054;50.108;8.640;2023-04-03T00:08:03;5.30;99.90
26342;DHT22;14054;50.108;8.640;2023-04-03T00:10:29;5.30;99.90
26342;DHT22;14054;50.108;8.640;2023-04-03T00:12:55;5.30;99.90
26342;DHT22;14054;50.108;8.640;2023-04-03T00:15:21;5.30;99.90
26342;DHT22;14054;50.108;8.640;2023-04-03T00:17:46;5.30;99.90
26342;DHT22;14054;50.108;8.640;2023-04-03T00:20:11;5.30;99.90
26342;DHT22;14054;50.108;8.640;2023-04-03T00:22:37;5.30;99.90
26342;DHT22;14054;50.108;8.640;2023-04-03T00:25:03;5.30;99.90
26342;DHT22;14054;50.108;8.640;2023-04-03T00:27:28;5.30;99.90
26342;DHT22;14054;50.108;8.640;2023-04-03T00:29:54;5.30;99.90
26342;DHT22;14054;50.108;8.640;2023-04-03T00:32:19;5.30;99.90
26342;DHT22;14054;50.108;8.640;2023-04-03T00:34:44;5.40;99.90
26342;DHT22;14054;50.108;8.640;2023-04-03T00:37:10;5.30;99.90
26342;DHT22;14054;50.108;8.640;2023-04-03T00:39:36;5.40;99.90
26342;DHT22;14054;50.108;8.640;2023-04-03T00:42:01;5.40;99.90
26342;DHT22;14054;50.108;8.640;2023-04-03T00:46:58;5.40;99.90
26342;DHT22;14054;50.108;8.640;2023-04-03T00:49:23;5.40;99.90
26342;DHT22;14054;50.108;8.640;2023-04-03T00:51:49;5.40;99.90
26342;DHT22;14054;50.108;8.640;2023-04-03T00:54:14;5.40;99.90
26342;DHT22;14054;50.108;8.640;2023-04-03T00:56:40;5.50;99.90
26342;DHT22;14054;50.108;8.640;2023-04-03T00:59:16;5.40;99.90
26342;DHT22;14054;50.108;8.640;2023-04-03T01:01:47;5.40;99.90
26342;DHT22;14054;50.108;8.640;2023-04-03T01:06:59;5.40;99.90
26342;DHT22;14054;50.108;8.640;2023-04-03T01:09:25;5.40;99.90
26342;DHT22;14054;50.108;8.640;2023-04-03T01:11:51;5.40;99.90
26342;DHT22;14054;50.108;8.640;2023-04-03T01:14:16;5.40;99.90
26342;DHT22;14054;50.108;8.640;2023-04-03T01:16:42;5.40;99.90
26342;DHT22;14054;50.108;8.640;2023-04-03T01:19:08;5.40;99.90
26342;DHT22;14054;50.108;8.640;2023-04-03T01:24:21;5.40;99.90
26342;DHT22;14054;50.108;8.640;2023-04-03T01:26:50;5.40;99.90
26342;DHT22;14054;50.108;8.640;2023-04-03T01:29:16;5.30;99.90
26342;DHT22;14054;50.108;8.640;2023-04-03T01:31:46;5.30;99.90
26342;DHT22;14054;50.108;8.640;2023-04-03T01:34:12;5.30;99.90
26342;DHT22;14054;50.108;8.640;2023-04-03T01:36:37;5.30;99.90
26342;DHT22;14054;50.108;8.640;2023-04-03T01:39:03;5.30;99.90
26342;DHT22;14054;50.108;8.640;2023-04-03T01:41:28;5.30;99.90
26342;DHT22;14054;50.108;8.640;2023-04-03T01:43:54;5.30;99.90
26342;DHT22;14054;50.108;8.640;2023-04-03T01:46:19;5.20;99.90
26342;DHT22;14054;50.108;8.640;2023-04-03T01:48:45;5.20;99.90
26342;DHT22;14054;50.108;8.640;2023-04-03T01:51:10;5.20;99.90
26342;DHT22;14054;50.108;8.640;2023-04-03T01:53:36;5.20;99.90
26342;DHT22;14054;50.108;8.640;2023-04-03T01:56:01;5.20;99.90
26342;DHT22;14054;50.108;8.640;2023-04-03T01:58:27;5.20;99.90
26342;DHT22;14054;50.108;8.640;2023-04-03T02:00:52;5.20;99.90
26342;DHT22;14054;50.108;8.640;2023-04-03T02:03:18;5.20;99.90
26342;DHT22;14054;50.108;8.640;2023-04-03T02:05:43;5.20;99.90
26342;DHT22;14054;50.108;8.640;2023-04-03T02:08:09;5.20;99.90
26342;DHT22;14054;50.108;8.640;2023-04-03T02:10:35;5.20;99.90
26342;DHT22;14054;50.108;8.640;2023-04-03T02:13:00;5.20;99.90
26342;DHT22;14054;50.108;8.640;2023-04-03T02:15:26;5.20;99.90
26342;DHT22;14054;50.108;8.640;2023-04-03T02:17:51;5.20;99.90
26342;DHT22;14054;50.108;8.640;2023-04-03T02:20:17;5.20;99.90
26342;DHT22;14054;50.108;8.640;2023-04-03T02:22:43;5.20;99.90
26342;DHT22;14054;50.108;8.640;2023-04-03T02:25:08;5.20;99.90
26342;DHT22;14054;50.108;8.640;2023-04-03T02:27:34;5.20;99.90
26342;DHT22;14054;50.108;8.640;2023-04-03T02:30:00;5.20;99.90
26342;DHT22;14054;50.108;8.640;2023-04-03T02:32:26;5.20;99.90
26342;DHT22;14054;50.108;8.640;2023-04-03T02:34:51;5.20;99.90
26342;DHT22;14054;50.108;8.640;2023-04-03T02:37:17;5.20;99.90
26342;DHT22;14054;50.108;8.640;2023-04-03T02:39:42;5.20;99.90
26342;DHT22;14054;50.108;8.640;2023-04-03T02:42:08;5.30;99.90
26342;DHT22;14054;50.108;8.640;2023-04-03T02:44:33;5.20;99.90
26342;DHT22;14054;50.108;8.640;2023-04-03T02:46:58;5.20;99.90
26342;DHT22;14054;50.108;8.640;2023-04-03T02:49:24;5.20;99.90
26342;DHT22;14054;50.108;8.640;2023-04-03T02:51:49;5.20;99.90
26342;DHT22;14054;50.108;8.640;2023-04-03T02:54:16;5.20;99.90
26342;DHT22;14054;50.108;8.640;2023-04-03T02:56:41;5.20;99.90
26342;DHT22;14054;50.108;8.640;2023-04-03T02:59:07;5.20;99.90
26342;DHT22;14054;50.108;8.640;2023-04-03T03:01:32;5.20;99.90
26342;DHT22;14054;50.108;8.640;2023-04-03T03:04:00;5.20;99.90
26342;DHT22;14054;50.108;8.640;2023-04-03T03:06:26;5.20;99.90
26342;DHT22;14054;50.108;8.640;2023-04-03T03:08:52;5.20;99.90
26342;DHT22;14054;50.108;8.640;2023-04-03T03:11:17;5.20;99.90
26342;DHT22;14054;50.108;8.640;2023-04-03T03:13:42;5.20;99.90
26342;DHT22;14054;50.108;8.640;2023-04-03T03:16:08;5.20;99.90
26342;DHT22;14054;50.108;8.640;2023-04-03T03:18:33;5.10;99.90
26342;DHT22;14054;50.108;8.640;2023-04-03T03:20:59;5.10;99.90
26342;DHT22;14054;50.108;8.640;2023-04-03T03:23:26;5.00;99.90
26342;DHT22;14054;50.108;8.640;2023-04-03T03:25:58;5.10;99.90
26342;DHT22;14054;50.108;8.640;2023-04-03T03:28:24;5.10;99.90
26342;DHT22;14054;50.108;8.640;2023-04-03T03:30:50;5.10;99.90
26342;DHT22;14054;50.108;8.640;2023-04-03T03:33:15;5.00;99.90
26342;DHT22;14054;50.108;8.640;2023-04-03T03:35:42;5.00;99.90
26342;DHT22;14054;50.108;8.640;2023-04-03T03:38:08;4.90;99.90
26342;DHT22;14054;50.108;8.640;2023-04-03T03:40:33;4.90;99.90
26342;DHT22;14054;50.108;8.640;2023-04-03T03:42:59;4.80;99.90
26342;DHT22;14054;50.108;8.640;2023-04-03T03:45:24;4.70;99.90
26342;DHT22;14054;50.108;8.640;2023-04-03T03:47:50;4.70;99.90
26342;DHT22;14054;50.108;8.640;2023-04-03T03:50:15;4.70;99.90
26342;DHT22;14054;50.108;8.640;2023-04-03T03:52:41;4.60;99.90
26342;DHT22;14054;50.108;8.640;2023-04-03T03:55:06;4.50;99.90
26342;DHT22;14054;50.108;8.640;2023-04-03T03:57:32;4.60;99.90
26342;DHT22;14054;50.108;8.640;2023-04-03T03:59:57;4.50;99.90
26342;DHT22;14054;50.108;8.640;2023-04-03T04:02:23;4.50;99.90
26342;DHT22;14054;50.108;8.640;2023-04-03T04:04:48;4.40;99.90
26342;DHT22;14054;50.108;8.640;2023-04-03T04:07:14;4.40;99.90
26342;DHT22;14054;50.108;8.640;2023-04-03T04:09:40;4.40;99.90
26342;DHT22;14054;50.108;8.640;2023-04-03T04:12:05;4.40;99.90
26342;DHT22;14054;50.108;8.640;2023-04-03T04:14:31;4.30;99.90
26342;DHT22;14054;50.108;8.640;2023-04-03T04:16:56;4.30;99.90
26342;DHT22;14054;50.108;8.640;2023-04-03T04:19:22;4.30;99.90
26342;DHT22;14054;50.108;8.640;2023-04-03T04:21:47;4.30;99.90
26342;DHT22;14054;50.108;8.640;2023-04-03T04:24:13;4.20;99.90
26342;DHT22;14054;50.108;8.640;2023-04-03T04:26:38;4.20;99.90
26342;DHT22;14054;50.108;8.640;2023-04-03T04:29:04;4.10;99.90
26342;DHT22;14054;50.108;8.640;2023-04-03T04:31:29;4.10;99.90
26342;DHT22;14054;50.108;8.640;2023-04-03T04:33:54;4.10;99.90
26342;DHT22;14054;50.108;8.640;2023-04-03T04:36:20;4.00;99.90
26342;DHT22;14054;50.108;8.640;2023-04-03T04:38:45;4.10;99.90
26342;DHT22;14054;50.108;8.640;2023-04-03T04:41:11;4.00;99.90
26342;DHT22;14054;50.108;8.640;2023-04-03T04:43:36;4.00;99.90
26342;DHT22;14054;50.108;8.640;2023-04-03T04:46:08;3.90;99.90
26342;DHT22;14054;50.108;8.640;2023-04-03T04:48:34;4.00;99.90
26342;DHT22;14054;50.108;8.640;2023-04-03T04:50:59;4.00;99.90
26342;DHT22;14054;50.108;8.640;2023-04-03T04:53:25;3.90;99.90
26342;DHT22;14054;50.108;8.640;2023-04-03T04:55:51;3.90;99.90
26342;DHT22;14054;50.108;8.640;2023-04-03T04:58:17;4.00;99.90
26342;DHT22;14054;50.108;8.640;2023-04-03T05:00:42;4.00;99.90
26342;DHT22;14054;50.108;8.640;2023-04-03T05:03:08;3.90;99.90
26342;DHT22;14054;50.108;8.640;2023-04-03T05:05:33;3.80;99.90
26342;DHT22;14054;50.108;8.640;2023-04-03T05:07:59;3.80;99.90
26342;DHT22;14054;50.108;8.640;2023-04-03T05:10:24;3.90;99.90
26342;DHT22;14054;50.108;8.640;2023-04-03T05:12:50;3.80;99.90
26342;DHT22;14054;50.108;8.640;2023-04-03T05:15:15;3.80;99.90
26342;DHT22;14054;50.108;8.640;2023-04-03T05:17:41;3.70;99.90
26342;DHT22;14054;50.108;8.640;2023-04-03T05:20:07;3.70;99.90
26342;DHT22;14054;50.108;8.640;2023-04-03T05:22:32;3.70;99.90
26342;DHT22;14054;50.108;8.640;2023-04-03T05:24:58;3.70;99.90
26342;DHT22;14054;50.108;8.640;2023-04-03T05:27:23;3.60;99.90
26342;DHT22;14054;50.108;8.640;2023-04-03T05:29:49;3.70;99.90
26342;DHT22;14054;50.108;8.640;2023-04-03T05:32:15;3.70;99.90
26342;DHT22;14054;50.108;8.640;2023-04-03T05:34:40;3.70;99.90
26342;DHT22;14054;50.108;8.640;2023-04-03T05:37:06;3.70;99.90
26342;DHT22;14054;50.108;8.640;2023-04-03T05:39:31;3.80;99.90
26342;DHT22;14054;50.108;8.640;2023-04-03T05:41:57;3.80;99.90
26342;DHT22;14054;50.108;8.640;2023-04-03T05:44:22;3.80;99.90
26342;DHT22;14054;50.108;8.640;2023-04-03T05:46:48;3.80;99.90
26342;DHT22;14054;50.108;8.640;2023-04-03T05:49:13;3.70;99.90
26342;DHT22;14054;50.108;8.640;2023-04-03T05:51:39;3.80;99.90
26342;DHT22;14054;50.108;8.640;2023-04-03T05:56:59;3.60;99.90
26342;DHT22;14054;50.108;8.640;2023-04-03T05:59:24;3.70;99.90
26342;DHT22;14054;50.108;8.640;2023-04-03T06:01:50;3.70;99.90
26342;DHT22;14054;50.108;8.640;2023-04-03T06:04:16;3.70;99.90
26342;DHT22;14054;50.108;8.640;2023-04-03T06:06:45;3.70;99.90
26342;DHT22;14054;50.108;8.640;2023-04-03T06:09:11;3.70;99.90
26342;DHT22;14054;50.108;8.640;2023-04-03T06:11:36;3.60;99.90
26342;DHT22;14054;50.108;8.640;2023-04-03T06:14:02;3.60;99.90
26342;DHT22;14054;50.108;8.640;2023-04-03T06:16:28;3.60;99.90
26342;DHT22;14054;50.108;8.640;2023-04-03T06:18:54;3.60;99.90
26342;DHT22;14054;50.108;8.640;2023-04-03T06:21:20;3.70;99.90
26342;DHT22;14054;50.108;8.640;2023-04-03T06:23:45;3.80;99.90
26342;DHT22;14054;50.108;8.640;2023-04-03T06:26:11;3.80;99.90
26342;DHT22;14054;50.108;8.640;2023-04-03T06:28:36;3.70;99.90
26342;DHT22;14054;50.108;8.640;2023-04-03T06:31:02;3.80;99.90
26342;DHT22;14054;50.108;8.640;2023-04-03T06:33:28;3.90;99.90
26342;DHT22;14054;50.108;8.640;2023-04-03T06:35:57;3.90;99.90
26342;DHT22;14054;50.108;8.640;2023-04-03T06:38:23;3.90;99.90
26342;DHT22;14054;50.108;8.640;2023-04-03T06:40:48;3.90;99.90
26342;DHT22;14054;50.108;8.640;2023-04-03T06:43:13;4.00;99.90
26342;DHT22;14054;50.108;8.640;2023-04-03T06:45:39;4.20;99.90
26342;DHT22;14054;50.108;8.640;2023-04-03T06:48:05;4.20;99.90
26342;DHT22;14054;50.108;8.640;2023-04-03T06:50:30;4.30;99.90
26342;DHT22;14054;50.108;8.640;2023-04-03T06:52:56;4.30;99.90
26342;DHT22;14054;50.108;8.640;2023-04-03T06:55:21;4.40;99.90
26342;DHT22;14054;50.108;8.640;2023-04-03T06:57:47;4.40;99.90
26342;DHT22;14054;50.108;8.640;2023-04-03T07:00:13;4.40;99.90
26342;DHT22;14054;50.108;8.640;2023-04-03T07:02:38;4.40;99.90
26342;DHT22;14054;50.108;8.640;2023-04-03T07:05:04;4.60;99.90
26342;DHT22;14054;50.108;8.640;2023-04-03T07:07:29;4.60;99.90
26342;DHT22;14054;50.108;8.640;2023-04-03T07:09:55;4.70;99.90
26342;DHT22;14054;50.108;8.640;2023-04-03T07:12:20;4.70;99.90
26342;DHT22;14054;50.108;8.640;2023-04-03T07:14:46;4.80;99.90
26342;DHT22;14054;50.108;8.640;2023-04-03T07:17:11;4.90;99.90
26342;DHT22;14054;50.108;8.640;2023-04-03T07:19:36;5.00;99.90
26342;DHT22;14054;50.108;8.640;2023-04-03T07:22:02;5.20;99.90
26342;DHT22;14054;50.108;8.640;2023-04-03T07:24:27;5.30;99.90
26342;DHT22;14054;50.108;8.640;2023-04-03T07:26:53;5.20;99.90
26342;DHT22;14054;50.108;8.640;2023-04-03T07:29:18;5.30;99.90
26342;DHT22;14054;50.108;8.640;2023-04-03T07:31:46;5.10;99.90
26342;DHT22;14054;50.108;8.640;2023-04-03T07:34:12;5.10;99.90
26342;DHT22;14054;50.108;8.640;2023-04-03T07:36:37;5.40;99.90
26342;DHT22;14054;50.108;8.640;2023-04-03T07:39:03;5.70;99.90
26342;DHT22;14054;50.108;8.640;2023-04-03T07:41:28;5.80;99.90
26342;DHT22;14054;50.108;8.640;2023-04-03T07:43:55;5.80;99.90
26342;DHT22;14054;50.108;8.640;2023-04-03T07:46:21;6.30;99.90
26342;DHT22;14054;50.108;8.640;2023-04-03T07:48:47;6.70;99.90
26342;DHT22;14054;50.108;8.640;2023-04-03T07:51:12;7.10;99.90
26342;DHT22;14054;50.108;8.640;2023-04-03T07:53:38;7.30;99.90
26342;DHT22;14054;50.108;8.640;2023-04-03T07:56:03;8.00;99.90
26342;DHT22;14054;50.108;8.640;2023-04-03T07:58:29;7.80;99.90
26342;DHT22;14054;50.108;8.640;2023-04-03T08:00:55;7.50;99.90
26342;DHT22;14054;50.108;8.640;2023-04-03T08:03:20;7.50;99.90
26342;DHT22;14054;50.108;8.640;2023-04-03T08:05:47;7.60;99.90
26342;DHT22;14054;50.108;8.640;2023-04-03T08:08:13;7.60;99.90
26342;DHT22;14054;50.108;8.640;2023-04-03T08:10:39;7.40;99.90
26342;DHT22;14054;50.108;8.640;2023-04-03T08:13:05;7.50;99.90
26342;DHT22;14054;50.108;8.640;2023-04-03T08:15:30;7.30;99.90
26342;DHT22;14054;50.108;8.640;2023-04-03T08:17:57;7.50;99.90
26342;DHT22;14054;50.108;8.640;2023-04-03T08:20:22;7.50;99.90
26342;DHT22;14054;50.108;8.640;2023-04-03T08:22:47;7.30;99.90
26342;DHT22;14054;50.108;8.640;2023-04-03T08:25:13;7.50;99.90
26342;DHT22;14054;50.108;8.640;2023-04-03T08:27:38;7.70;99.90
26342;DHT22;14054;50.108;8.640;2023-04-03T08:30:04;7.80;99.90
26342;DHT22;14054;50.108;8.640;2023-04-03T08:32:30;7.70;99.90
26342;DHT22;14054;50.108;8.640;2023-04-03T08:34:55;8.20;99.90
26342;DHT22;14054;50.108;8.640;2023-04-03T08:37:21;7.90;99.90
26342;DHT22;14054;50.108;8.640;2023-04-03T08:39:46;8.20;99.90
26342;DHT22;14054;50.108;8.640;2023-04-03T08:42:36;8.40;99.90
26342;DHT22;14054;50.108;8.640;2023-04-03T08:45:05;8.50;99.90
26342;DHT22;14054;50.108;8.640;2023-04-03T08:49:59;8.30;99.90
26342;DHT22;14054;50.108;8.640;2023-04-03T08:58:06;8.70;99.90
26342;DHT22;14054;50.108;8.640;2023-04-03T09:00:39;8.60;99.90
26342;DHT22;14054;50.108;8.640;2023-04-03T09:03:10;8.80;99.90
26342;DHT22;14054;50.108;8.640;2023-04-03T09:05:45;8.60;99.90
26342;DHT22;14054;50.108;8.640;2023-04-03T09:10:38;8.50;99.90
26342;DHT22;14054;50.108;8.640;2023-04-03T09:15:33;8.50;99.90
26342;DHT22;14054;50.108;8.640;2023-04-03T09:18:01;8.60;99.90
26342;DHT22;14054;50.108;8.640;2023-04-03T09:20:39;8.70;99.90
26342;DHT22;14054;50.108;8.640;2023-04-03T09:25:50;8.70;99.90
26342;DHT22;14054;50.108;8.640;2023-04-03T09:28:18;8.90;99.90
26342;DHT22;14054;50.108;8.640;2023-04-03T09:30:44;8.80;99.90
26342;DHT22;14054;50.108;8.640;2023-04-03T09:33:09;8.80;99.90
26342;DHT22;14054;50.108;8.640;2023-04-03T09:35:36;9.10;99.90
26342;DHT22;14054;50.108;8.640;2023-04-03T09:40:38;8.70;99.90
26342;DHT22;14054;50.108;8.640;2023-04-03T09:43:24;8.20;99.90
26342;DHT22;14054;50.108;8.640;2023-04-03T09:45:50;8.30;99.90
26342;DHT22;14054;50.108;8.640;2023-04-03T09:48:18;8.70;99.90
26342;DHT22;14054;50.108;8.640;2023-04-03T09:53:38;9.50;99.90
26342;DHT22;14054;50.108;8.640;2023-04-03T09:56:05;9.40;99.90
26342;DHT22;14054;50.108;8.640;2023-04-03T09:58:44;8.80;99.90
26342;DHT22;14054;50.108;8.640;2023-04-03T10:06:37;9.40;99.90
26342;DHT22;14054;50.108;8.640;2023-04-03T10:09:05;9.40;99.90
26342;DHT22;14054;50.108;8.640;2023-04-03T10:11:31;9.50;99.90
26342;DHT22;14054;50.108;8.640;2023-04-03T10:14:00;9.60;99.90
26342;DHT22;14054;50.108;8.640;2023-04-03T10:16:28;9.20;99.90
26342;DHT22;14054;50.108;8.640;2023-04-03T10:21:30;9.20;99.90
26342;DHT22;14054;50.108;8.640;2023-04-03T10:24:19;9.60;99.90
26342;DHT22;14054;50.108;8.640;2023-04-03T10:29:34;10.60;99.90
26342;DHT22;14054;50.108;8.640;2023-04-03T10:34:40;10.60;99.90
26342;DHT22;14054;50.108;8.640;2023-04-03T10:37:14;10.50;98.20
26342;DHT22;14054;50.108;8.640;2023-04-03T10:39:50;10.50;97.80
26342;DHT22;14054;50.108;8.640;2023-04-03T10:42:18;10.80;98.10
26342;DHT22;14054;50.108;8.640;2023-04-03T10:47:47;10.40;97.80
26342;DHT22;14054;50.108;8.640;2023-04-03T10:52:52;10.70;97.30
26342;DHT22;14054;50.108;8.640;2023-04-03T10:55:31;10.30;97.20
26342;DHT22;14054;50.108;8.640;2023-04-03T10:57:59;10.30;96.10
26342;DHT22;14054;50.108;8.640;2023-04-03T11:00:39;10.20;96.00
26342;DHT22;14054;50.108;8.640;2023-04-03T11:03:07;10.50;96.70
26342;DHT22;14054;50.108;8.640;2023-04-03T11:05:42;10.30;96.30
26342;DHT22;14054;50.108;8.640;2023-04-03T11:10:40;10.50;95.80
26342;DHT22;14054;50.108;8.640;2023-04-03T11:13:27;10.70;94.90
26342;DHT22;14054;50.108;8.640;2023-04-03T11:15:53;11.40;93.30
26342;DHT22;14054;50.108;8.640;2023-04-03T11:18:21;14.20;97.00
26342;DHT22;14054;50.108;8.640;2023-04-03T11:23:17;15.70;71.50
26342;DHT22;14054;50.108;8.640;2023-04-03T11:25:44;17.00;83.70
26342;DHT22;14054;50.108;8.640;2023-04-03T11:28:14;16.30;77.90
26342;DHT22;14054;50.108;8.640;2023-04-03T11:30:43;16.40;78.10
26342;DHT22;14054;50.108;8.640;2023-04-03T12:24:28;17.70;76.40
26342;DHT22;14054;50.108;8.640;2023-04-03T12:29:27;19.20;76.80
26342;DHT22;14054;50.108;8.640;2023-04-03T12:37:38;18.60;77.30
26342;DHT22;14054;50.108;8.640;2023-04-03T12:40:09;18.60;76.10
26342;DHT22;14054;50.108;8.640;2023-04-03T12:45:15;20.60;76.60
26342;DHT22;14054;50.108;8.640;2023-04-03T12:47:44;20.70;74.20
26342;DHT22;14054;50.108;8.640;2023-04-03T12:50:16;20.00;75.60
26342;DHT22;14054;50.108;8.640;2023-04-03T12:52:45;16.60;82.70
26342;DHT22;14054;50.108;8.640;2023-04-03T12:55:17;17.10;69.90
26342;DHT22;14054;50.108;8.640;2023-04-03T12:57:42;18.90;61.00
26342;DHT22;14054;50.108;8.640;2023-04-03T13:00:21;20.10;58.10
26342;DHT22;14054;50.108;8.640;2023-04-03T13:02:47;19.60;57.50
26342;DHT22;14054;50.108;8.640;2023-04-03T13:05:19;19.00;59.00
26342;DHT22;14054;50.108;8.640;2023-04-03T13:07:47;20.30;58.60
26342;DHT22;14054;50.108;8.640;2023-04-03T13:10:16;18.70;57.90
26342;DHT22;14054;50.108;8.640;2023-04-03T13:12:49;18.60;56.90
26342;DHT22;14054;50.108;8.640;2023-04-03T13:15:22;18.60;58.70
26342;DHT22;14054;50.108;8.640;2023-04-03T13:17:48;19.20;57.30
26342;DHT22;14054;50.108;8.640;2023-04-03T13:20:21;19.30;57.50
26342;DHT22;14054;50.108;8.640;2023-04-03T13:22:49;18.70;57.90
26342;DHT22;14054;50.108;8.640;2023-04-03T13:25:15;20.40;57.30
26342;DHT22;14054;50.108;8.640;2023-04-03T13:27:41;20.30;56.60
26342;DHT22;14054;50.108;8.640;2023-04-03T13:30:54;20.00;55.30
26342;DHT22;14054;50.108;8.640;2023-04-03T13:33:02;20.20;55.80
26342;DHT22;14054;50.108;8.640;2023-04-03T13:35:36;20.20;55.70
26342;DHT22;14054;50.108;8.640;2023-04-03T13:38:05;20.60;56.70
26342;DHT22;14054;50.108;8.640;2023-04-03T13:40:31;20.80;55.50
26342;DHT22;14054;50.108;8.640;2023-04-03T13:43:16;19.40;56.00
26342;DHT22;14054;50.108;8.640;2023-04-03T13:45:53;19.50;56.30
26342;DHT22;14054;50.108;8.640;2023-04-03T13:48:19;20.00;55.90
26342;DHT22;14054;50.108;8.640;2023-04-03T13:53:16;20.70;53.80
26342;DHT22;14054;50.108;8.640;2023-04-03T13:55:53;20.40;54.90
26342;DHT22;14054;50.108;8.640;2023-04-03T13:58:22;19.50;56.50
26342;DHT22;14054;50.108;8.640;2023-04-03T14:06:16;17.10;57.90
26342;DHT22;14054;50.108;8.640;2023-04-03T14:08:42;14.20;42.20
26342;DHT22;14054;50.108;8.640;2023-04-03T14:11:15;14.00;45.00
26342;DHT22;14054;50.108;8.640;2023-04-03T14:13:41;12.60;45.80
26342;DHT22;14054;50.108;8.640;2023-04-03T14:16:07;11.80;59.50
26342;DHT22;14054;50.108;8.640;2023-04-03T14:18:32;11.50;49.40
26342;DHT22;14054;50.108;8.640;2023-04-03T14:20:58;10.90;51.00
26342;DHT22;14054;50.108;8.640;2023-04-03T14:23:23;11.20;52.80
26342;DHT22;14054;50.108;8.640;2023-04-03T14:25:49;11.00;53.80
26342;DHT22;14054;50.108;8.640;2023-04-03T14:28:19;10.70;52.70
26342;DHT22;14054;50.108;8.640;2023-04-03T14:30:46;10.90;53.60
26342;DHT22;14054;50.108;8.640;2023-04-03T14:33:16;10.60;53.70
26342;DHT22;14054;50.108;8.640;2023-04-03T14:35:41;10.10;54.60
26342;DHT22;14054;50.108;8.640;2023-04-03T14:38:27;10.30;55.50
26342;DHT22;14054;50.108;8.640;2023-04-03T14:40:53;9.90;56.30
26342;DHT22;14054;50.108;8.640;2023-04-03T14:43:18;9.70;55.20
26342;DHT22;14054;50.108;8.640;2023-04-03T14:45:45;9.90;55.20
26342;DHT22;14054;50.108;8.640;2023-04-03T14:48:15;9.80;55.40
26342;DHT22;14054;50.108;8.640;2023-04-03T14:50:42;9.80;56.30
26342;DHT22;14054;50.108;8.640;2023-04-03T14:53:07;9.60;56.90
26342;DHT22;14054;50.108;8.640;2023-04-03T14:55:33;9.70;57.70
26342;DHT22;14054;50.108;8.640;2023-04-03T14:57:58;9.60;57.50
26342;DHT22;14054;50.108;8.640;2023-04-03T15:00:24;9.60;58.60
26342;DHT22;14054;50.108;8.640;2023-04-03T15:02:49;9.70;59.20
26342;DHT22;14054;50.108;8.640;2023-04-03T15:05:15;9.60;58.00
26342;DHT22;14054;50.108;8.640;2023-04-03T15:07:41;9.60;59.00
26342;DHT22;14054;50.108;8.640;2023-04-03T15:12:39;9.20;59.50
26342;DHT22;14054;50.108;8.640;2023-04-03T15:15:04;9.20;60.90
26342;DHT22;14054;50.108;8.640;2023-04-03T15:17:30;9.10;59.50
26342;DHT22;14054;50.108;8.640;2023-04-03T15:19:55;9.10;60.20
26342;DHT22;14054;50.108;8.640;2023-04-03T15:22:21;8.90;60.30
26342;DHT22;14054;50.108;8.640;2023-04-03T15:24:46;9.10;61.20
26342;DHT22;14054;50.108;8.640;2023-04-03T15:27:12;9.00;61.00
26342;DHT22;14054;50.108;8.640;2023-04-03T15:29:39;9.00;61.30
26342;DHT22;14054;50.108;8.640;2023-04-03T15:32:05;9.10;61.30
26342;DHT22;14054;50.108;8.640;2023-04-03T15:34:30;8.90;60.00
26342;DHT22;14054;50.108;8.640;2023-04-03T15:36:56;8.90;61.40
26342;DHT22;14054;50.108;8.640;2023-04-03T15:39:22;8.70;61.70
26342;DHT22;14054;50.108;8.640;2023-04-03T15:41:48;8.50;62.70
26342;DHT22;14054;50.108;8.640;2023-04-03T15:44:14;8.50;65.20
26342;DHT22;14054;50.108;8.640;2023-04-03T15:46:42;8.50;65.60
26342;DHT22;14054;50.108;8.640;2023-04-03T15:49:08;8.60;66.20
26342;DHT22;14054;50.108;8.640;2023-04-03T15:51:33;8.40;64.10
26342;DHT22;14054;50.108;8.640;2023-04-03T15:53:59;8.40;65.00
26342;DHT22;14054;50.108;8.640;2023-04-03T15:56:25;8.30;64.30
26342;DHT22;14054;50.108;8.640;2023-04-03T15:58:50;8.40;64.20
26342;DHT22;14054;50.108;8.640;2023-04-03T16:01:15;8.30;64.20
26342;DHT22;14054;50.108;8.640;2023-04-03T16:03:41;8.30;64.30
26342;DHT22;14054;50.108;8.640;2023-04-03T16:06:11;8.20;65.30
26342;DHT22;14054;50.108;8.640;2023-04-03T16:08:36;8.10;65.90
26342;DHT22;14054;50.108;8.640;2023-04-03T16:11:02;8.20;66.80
26342;DHT22;14054;50.108;8.640;2023-04-03T16:13:27;8.20;67.40
26342;DHT22;14054;50.108;8.640;2023-04-03T16:15:53;8.10;66.80
26342;DHT22;14054;50.108;8.640;2023-04-03T16:18:19;8.10;66.10
26342;DHT22;14054;50.108;8.640;2023-04-03T16:20:44;7.90;65.10
26342;DHT22;14054;50.108;8.640;2023-04-03T16:23:10;7.90;66.90
26342;DHT22;14054;50.108;8.640;2023-04-03T16:25:36;7.90;67.30
26342;DHT22;14054;50.108;8.640;2023-04-03T16:28:01;7.90;67.70
26342;DHT22;14054;50.108;8.640;2023-04-03T16:30:27;7.90;68.20
26342;DHT22;14054;50.108;8.640;2023-04-03T16:32:52;7.90;68.30
26342;DHT22;14054;50.108;8.640;2023-04-03T16:35:18;7.80;67.80
26342;DHT22;14054;50.108;8.640;2023-04-03T16:37:44;7.80;67.40
26342;DHT22;14054;50.108;8.640;2023-04-03T16:40:09;7.80;67.80
26342;DHT22;14054;50.108;8.640;2023-04-03T16:42:35;7.80;67.20
26342;DHT22;14054;50.108;8.640;2023-04-03T16:45:00;7.80;67.30
26342;DHT22;14054;50.108;8.640;2023-04-03T16:47:28;7.80;67.80
26342;DHT22;14054;50.108;8.640;2023-04-03T16:49:54;7.80;68.30
26342;DHT22;14054;50.108;8.640;2023-04-03T16:52:19;7.80;68.30
26342;DHT22;14054;50.108;8.640;2023-04-03T16:54:45;7.70;68.80
26342;DHT22;14054;50.108;8.640;2023-04-03T16:57:11;7.60;68.70
26342;DHT22;14054;50.108;8.640;2023-04-03T16:59:36;7.60;69.40
26342;DHT22;14054;50.108;8.640;2023-04-03T17:02:02;7.60;70.40
26342;DHT22;14054;50.108;8.640;2023-04-03T17:04:27;7.50;71.20
26342;DHT22;14054;50.108;8.640;2023-04-03T17:06:53;7.50;71.50
26342;DHT22;14054;50.108;8.640;2023-04-03T17:09:19;7.40;72.50
26342;DHT22;14054;50.108;8.640;2023-04-03T17:11:46;7.40;72.50
26342;DHT22;14054;50.108;8.640;2023-04-03T17:14:11;7.50;73.20
26342;DHT22;14054;50.108;8.640;2023-04-03T17:16:37;7.30;73.00
26342;DHT22;14054;50.108;8.640;2023-04-03T17:19:03;7.40;74.10
26342;DHT22;14054;50.108;8.640;2023-04-03T17:21:29;7.30;74.40
26342;DHT22;14054;50.108;8.640;2023-04-03T17:23:59;7.30;74.40
26342;DHT22;14054;50.108;8.640;2023-04-03T17:26:25;7.20;74.40
26342;DHT22;14054;50.108;8.640;2023-04-03T17:28:51;7.10;75.00
26342;DHT22;14054;50.108;8.640;2023-04-03T17:31:17;7.00;75.80
26342;DHT22;14054;50.108;8.640;2023-04-03T17:33:42;7.00;76.50
26342;DHT22;14054;50.108;8.640;2023-04-03T17:36:07;7.00;77.90
26342;DHT22;14054;50.108;8.640;2023-04-03T17:38:33;6.90;76.40
26342;DHT22;14054;50.108;8.640;2023-04-03T17:41:00;6.90;76.30
26342;DHT22;14054;50.108;8.640;2023-04-03T17:43:26;6.80;77.00
26342;DHT22;14054;50.108;8.640;2023-04-03T17:45:52;6.80;77.70
26342;DHT22;14054;50.108;8.640;2023-04-03T17:48:17;6.80;78.70